PWSweather.com
Personal Weather Stations
Station Observations
KVAGLENALL
West Henrico, Glen Allen, VA 23060-6503

West HenricoGlen Allen, VA 23060-6503

Lat: 37.6554, Lon: -77.5693

Elevation: 273

Station Type: Davis Vantage Pro II

www.glenallenweather.com

High Low Average
Temperature 85.1°F29.5°C 67.9°F19.9°C 74.7°F23.7°C
Dew Point 77.2°F25.1°C 67.1°F19.5°C 71.9°F22.2°C
Winds 7.0 mph 11.3 kmh Calm Calm 2.0 mph SE3.2 kmh SE
Wind Gusts 8.1 mph13.0 kmh -- 4.0 mph6.4 kmh
Humidity 98% 77% 91%
Pressure 30.03 in1016.9 mb 29.87 in1011.5 mb -
Precipitation 0.00 in0.0 mm - -
Hour Temp Dew Point Humidity Winds Wind Gusts Pressure Precip Precip Rate Daily Precip Total
12:00 AM 70.2°F21.2°C 69.0°F20.6°C 96% 5.0 mph NNE8.0 kmh NNE 6.1 mph9.8 kmh 30.03 in1016.9 mb 0.01 in0.3 mm 0.00 in0.0 mm 0.01 in0.3 mm
01:00 AM 68.6°F20.3°C 67.5°F19.7°C 96% 2.0 mph E3.2 kmh E 8.1 mph13.0 kmh 30.01 in1016.3 mb 0.01 in0.3 mm 0.00 in0.0 mm 0.01 in0.3 mm
02:00 AM 68.3°F20.2°C 67.5°F19.7°C 97% 5.0 mph NNE8.0 kmh NNE 5.1 mph8.2 kmh 30.00 in1015.9 mb 0.01 in0.3 mm 0.00 in0.0 mm 0.01 in0.3 mm
03:00 AM 68.2°F20.1°C 67.4°F19.7°C 97% 2.0 mph NE3.2 kmh NE 3.0 mph4.8 kmh 29.99 in1015.6 mb 0.01 in0.3 mm 0.00 in0.0 mm 0.01 in0.3 mm
04:00 AM 67.9°F19.9°C 67.1°F19.5°C 97% 2.0 mph NE3.2 kmh NE 5.1 mph8.2 kmh 29.98 in1015.2 mb 0.00 in0.0 mm 0.00 in0.0 mm 0.01 in0.3 mm
05:00 AM 68.0°F20.0°C 67.5°F19.7°C 98% 2.0 mph NE3.2 kmh NE 4.0 mph6.4 kmh 29.98 in1015.2 mb 0.02 in0.5 mm 0.00 in0.0 mm 0.03 in0.8 mm
06:00 AM 68.3°F20.2°C 67.8°F19.9°C 98% 1.0 mph N1.6 kmh N 3.0 mph4.8 kmh 29.99 in1015.6 mb 0.09 in2.3 mm 0.00 in0.0 mm 0.10 in2.5 mm
07:00 AM 68.9°F20.5°C 68.4°F20.2°C 98% 3.0 mph NNE4.8 kmh NNE 5.1 mph8.2 kmh 29.98 in1015.2 mb 0.04 in1.0 mm 0.00 in0.0 mm 0.10 in2.5 mm
08:00 AM 70.2°F21.2°C 69.3°F20.7°C 97% Calm Calm 3.0 mph4.8 kmh 29.99 in1015.6 mb 0.00 in0.0 mm 0.00 in0.0 mm 0.10 in2.5 mm
09:00 AM 72.3°F22.4°C 71.1°F21.7°C 96% Calm Calm -- 29.98 in1015.2 mb 0.00 in0.0 mm 0.00 in0.0 mm 0.10 in2.5 mm
10:00 AM 75.9°F24.4°C 73.1°F22.8°C 91% 2.0 mph SW3.2 kmh SW 4.0 mph6.4 kmh 29.98 in1015.2 mb 0.00 in0.0 mm 0.00 in0.0 mm 0.10 in2.5 mm
11:00 AM 79.8°F26.6°C 75.9°F24.4°C 88% 3.0 mph SW4.8 kmh SW 8.1 mph13.0 kmh 29.97 in1014.9 mb 0.01 in0.3 mm 0.00 in0.0 mm 0.11 in2.8 mm
12:00 PM 82.5°F28.1°C 77.2°F25.1°C 84% 1.0 mph SW1.6 kmh SW 1.0 mph1.6 kmh 29.95 in1014.2 mb 0.00 in0.0 mm 0.00 in0.0 mm 0.11 in2.8 mm
01:00 PM 82.8°F28.2°C 77.1°F25.1°C 83% 2.0 mph WNW3.2 kmh WNW 5.1 mph8.2 kmh 29.93 in1013.5 mb 0.00 in0.0 mm 0.00 in0.0 mm 0.11 in2.8 mm
02:00 PM 82.3°F27.9°C 75.5°F24.2°C 80% 2.0 mph N3.2 kmh N 3.0 mph4.8 kmh 29.91 in1012.9 mb 0.00 in0.0 mm 0.00 in0.0 mm 0.11 in2.8 mm
03:00 PM 84.0°F28.9°C 76.0°F24.4°C 77% 3.0 mph SW4.8 kmh SW 3.0 mph4.8 kmh 29.89 in1012.2 mb 0.00 in0.0 mm 0.00 in0.0 mm 0.11 in2.8 mm
04:00 PM 85.1°F29.5°C 77.1°F25.1°C 77% 3.0 mph S4.8 kmh S 5.1 mph8.2 kmh 29.88 in1011.9 mb 0.00 in0.0 mm 0.00 in0.0 mm 0.11 in2.8 mm
05:00 PM 83.7°F28.7°C 76.5°F24.7°C 79% Calm Calm 4.0 mph6.4 kmh 29.87 in1011.5 mb 0.00 in0.0 mm 0.00 in0.0 mm 0.11 in2.8 mm
08:15 PM 75.0°F23.9°C 73.5°F23.1°C 95% 1.0 mph SW1.6 kmh SW 6.1 mph9.8 kmh 29.88 in1011.9 mb 0.03 in0.8 mm 0.12 in3.0 mm 0.14 in3.6 mm
09:00 PM 74.5°F23.6°C 73.3°F22.9°C 96% 2.0 mph S3.2 kmh S 2.0 mph3.2 kmh 29.87 in1011.5 mb 0.00 in0.0 mm 0.00 in0.0 mm 0.14 in3.6 mm
10:00 PM 74.3°F23.5°C 73.1°F22.8°C 96% 3.0 mph S4.8 kmh S 5.1 mph8.2 kmh 29.88 in1011.9 mb 0.00 in0.0 mm 0.00 in0.0 mm 0.14 in3.6 mm
11:00 PM 73.6°F23.1°C 72.4°F22.4°C 96% 7.0 mph SW11.3 kmh SW 7.1 mph11.4 kmh 29.88 in1011.9 mb 0.05 in1.3 mm 0.00 in0.0 mm 0.19 in4.8 mm